Time;durP1;ratioP1;P1;durP2;ratioP2;P2;SDS_P1;SDS_P2;PMS_P1;PMS_P2;Temp;Humidity;BMP_temperature;BMP_pressure;BME280_temperature;BME280_humidity;BME280_pressure;Samples;Min_cycle;Max_cycle;Signal;HPM_P1;HPM_P2
2023/07/17 00:01:46;;;;;;;13.93;5.20;;;;;;;21.03;53.79;100833.88;5071134;28;20037;-47
2023/07/17 00:04:12;;;;;;;9.05;4.43;;;;;;;20.77;55.37;100833.94;5066525;28;20035;-46
2023/07/17 00:06:38;;;;;;;14.98;5.40;;;;;;;20.69;55.71;100841.84;5071385;28;20036;-45
2023/07/17 00:09:06;;;;;;;15.75;5.97;;;;;;;20.61;55.92;100836.97;5071323;28;20021;-45
2023/07/17 00:11:33;;;;;;;10.80;5.40;;;;;;;20.56;56.43;100832.34;5069216;28;20165;-45
2023/07/17 00:14:00;;;;;;;14.52;6.05;;;;;;;20.63;56.60;100835.59;5071465;28;20025;-47
2023/07/17 00:16:26;;;;;;;17.35;5.47;;;;;;;20.38;56.18;100836.38;5071072;28;20093;-48
2023/07/17 00:18:52;;;;;;;17.52;5.97;;;;;;;20.33;57.01;100841.00;5070640;28;20028;-47
2023/07/17 00:21:19;;;;;;;10.88;5.45;;;;;;;20.38;56.64;100852.69;5069730;28;20048;-48
2023/07/17 00:23:47;;;;;;;17.27;5.72;;;;;;;19.96;57.18;100842.03;5070862;28;20040;-49
2023/07/17 00:26:13;;;;;;;12.30;5.43;;;;;;;20.12;57.69;100834.72;5069892;28;20035;-47
2023/07/17 00:28:39;;;;;;;16.23;5.80;;;;;;;20.08;57.47;100845.31;5069712;28;20031;-49
2023/07/17 00:31:06;;;;;;;15.95;5.97;;;;;;;20.16;58.56;100855.66;5071601;28;20028;-49
2023/07/17 00:33:32;;;;;;;12.27;5.57;;;;;;;20.18;57.84;100845.31;5071053;28;20048;-46
2023/07/17 00:35:58;;;;;;;15.65;5.63;;;;;;;19.92;58.05;100852.59;5071140;28;20501;-50
2023/07/17 00:38:25;;;;;;;16.67;6.18;;;;;;;19.83;58.96;100847.97;5071018;28;20557;-47
2023/07/17 00:40:51;;;;;;;14.63;5.97;;;;;;;19.68;59.51;100846.84;5070889;28;20032;-48
2023/07/17 00:43:17;;;;;;;20.75;6.70;;;;;;;19.47;59.52;100848.63;5070876;28;20039;-46
2023/07/17 00:45:46;;;;;;;16.42;6.53;;;;;;;19.63;60.17;100851.44;5070914;28;20021;-49
2023/07/17 00:48:12;;;;;;;17.67;6.00;;;;;;;19.67;59.30;100841.69;5059736;28;20033;-49
2023/07/17 00:50:39;;;;;;;12.77;5.82;;;;;;;19.46;59.80;100843.47;5051076;28;20132;-46
2023/07/17 00:53:07;;;;;;;14.65;6.47;;;;;;;19.45;60.38;100844.53;5050646;28;20036;-46
2023/07/17 00:55:35;;;;;;;18.90;6.18;;;;;;;19.21;61.75;100849.56;5054225;28;20033;-48
2023/07/17 00:58:02;;;;;;;18.85;6.05;;;;;;;19.16;61.46;100842.25;5054702;28;20368;-47
2023/07/17 01:00:29;;;;;;;20.98;7.20;;;;;;;18.96;62.07;100844.81;5054330;28;20078;-45
2023/07/17 01:02:58;;;;;;;19.52;5.88;;;;;;;19.03;62.15;100848.09;5054095;28;20021;-46
2023/07/17 01:05:24;;;;;;;15.15;5.93;;;;;;;19.01;61.92;100847.56;5054458;28;20025;-48
2023/07/17 01:07:51;;;;;;;18.73;6.28;;;;;;;19.14;61.73;100838.13;5054555;28;20029;-46
2023/07/17 01:10:17;;;;;;;18.33;6.25;;;;;;;18.96;61.80;100833.97;5054630;28;20025;-48
2023/07/17 01:12:43;;;;;;;20.75;6.63;;;;;;;18.59;63.04;100834.75;5053813;28;20109;-45
2023/07/17 01:15:10;;;;;;;17.77;6.88;;;;;;;18.65;63.87;100833.72;5054104;28;20027;-46
2023/07/17 01:17:36;;;;;;;19.25;6.00;;;;;;;18.64;63.78;100831.25;5054062;28;20025;-48
2023/07/17 01:20:05;;;;;;;21.13;6.90;;;;;;;18.45;64.44;100828.97;5054238;28;20024;-49
2023/07/17 01:22:34;;;;;;;17.48;6.40;;;;;;;18.45;64.00;100828.97;5063469;28;20032;-47
2023/07/17 01:25:01;;;;;;;15.20;6.25;;;;;;;18.29;64.58;100826.38;5074237;28;20023;-46
2023/07/17 01:27:27;;;;;;;16.02;5.85;;;;;;;18.34;64.18;100829.13;5073814;28;20100;-46
2023/07/17 01:29:53;;;;;;;17.13;5.65;;;;;;;18.37;64.64;100826.72;5073808;28;20419;-46
2023/07/17 01:32:20;;;;;;;18.63;6.20;;;;;;;18.19;65.11;100827.09;5073707;28;20032;-46
2023/07/17 01:34:47;;;;;;;18.58;6.47;;;;;;;18.05;65.38;100829.41;5074270;28;20043;-47
2023/07/17 01:37:13;;;;;;;14.20;6.18;;;;;;;18.07;65.51;100835.38;5073789;28;20028;-48
2023/07/17 01:39:40;;;;;;;18.13;6.15;;;;;;;17.99;66.80;100822.31;5071388;28;20049;-48
2023/07/17 01:42:07;;;;;;;13.13;6.13;;;;;;;17.91;66.46;100823.56;5073127;28;20024;-49
2023/07/17 01:44:33;;;;;;;18.98;6.80;;;;;;;17.80;66.98;100837.25;5073746;28;20107;-47
2023/07/17 01:47:00;;;;;;;20.63;5.95;;;;;;;17.67;67.25;100833.03;5070776;28;20027;-46
2023/07/17 01:49:26;;;;;;;14.60;5.85;;;;;;;17.63;67.24;100827.31;5072701;28;20485;-48
2023/07/17 01:51:52;;;;;;;17.42;6.60;;;;;;;17.58;67.89;100829.94;5073199;28;20028;-48
2023/07/17 01:54:18;;;;;;;18.95;6.43;;;;;;;17.68;67.82;100832.78;5073757;28;20036;-49
2023/07/17 01:56:45;;;;;;;17.15;6.60;;;;;;;17.74;67.64;100833.69;5073313;28;20024;-45
2023/07/17 01:59:11;;;;;;;17.73;6.70;;;;;;;17.72;67.59;100830.41;5073318;28;20021;-48
2023/07/17 02:01:37;;;;;;;20.25;6.40;;;;;;;17.75;67.47;100839.91;5073107;28;20409;-46
2023/07/17 02:04:04;;;;;;;12.80;6.05;;;;;;;17.71;67.74;100823.31;5073279;28;20107;-46
2023/07/17 02:06:30;;;;;;;16.88;6.60;;;;;;;17.64;68.32;100831.63;5072057;28;20028;-49
2023/07/17 02:08:56;;;;;;;18.48;6.43;;;;;;;17.58;68.28;100838.06;5073608;28;20025;-48
2023/07/17 02:11:27;;;;;;;16.90;6.20;;;;;;;17.56;67.74;100840.22;5058164;28;20494;-48
2023/07/17 02:13:53;;;;;;;13.30;5.60;;;;;;;17.47;67.98;100833.59;5053072;28;20029;-47
2023/07/17 02:16:19;;;;;;;30.58;7.20;;;;;;;17.50;68.57;100833.09;5071387;28;20478;-48
2023/07/17 02:18:45;;;;;;;18.48;6.57;;;;;;;17.51;68.57;100833.91;5072984;28;20024;-47
2023/07/17 02:21:12;;;;;;;16.67;6.43;;;;;;;17.49;67.84;100828.78;5069471;28;20386;-44
2023/07/17 02:23:38;;;;;;;16.65;6.20;;;;;;;17.23;68.77;100851.16;5072597;28;20132;-44
2023/07/17 02:26:04;;;;;;;14.52;6.28;;;;;;;17.26;69.12;100856.03;5072963;28;20035;-48
2023/07/17 02:28:30;;;;;;;14.90;6.10;;;;;;;17.28;68.50;100852.03;5072789;28;20112;-48
2023/07/17 02:30:57;;;;;;;21.42;6.70;;;;;;;17.08;69.49;100855.25;5072893;28;20024;-48
2023/07/17 02:33:23;;;;;;;15.05;6.53;;;;;;;16.89;70.05;100838.50;5071609;28;20023;-47
2023/07/17 02:35:49;;;;;;;15.07;6.07;;;;;;;16.82;70.27;100855.94;5067917;28;20037;-48
2023/07/17 02:38:15;;;;;;;20.17;6.93;;;;;;;16.72;71.13;100856.63;5052589;28;20041;-46
2023/07/17 02:40:42;;;;;;;16.55;6.32;;;;;;;16.60;71.32;100848.56;5059161;28;20028;-48
2023/07/17 02:43:09;;;;;;;19.42;6.68;;;;;;;16.50;72.27;100840.28;5072125;28;20563;-46
2023/07/17 02:45:37;;;;;;;21.75;7.60;;;;;;;16.44;72.54;100852.09;5072731;28;20028;-45
2023/07/17 02:48:03;;;;;;;21.77;7.10;;;;;;;16.40;73.01;100853.63;5071279;28;20052;-46
2023/07/17 02:50:30;;;;;;;22.60;7.15;;;;;;;16.29;73.37;100841.00;5072269;28;20115;-45
2023/07/17 02:52:56;;;;;;;21.52;7.03;;;;;;;16.20;74.00;100850.56;5072120;28;20546;-46
2023/07/17 02:55:23;;;;;;;18.58;6.88;;;;;;;16.12;75.31;100850.97;5072372;28;20039;-49
2023/07/17 02:57:50;;;;;;;20.80;7.53;;;;;;;15.99;75.72;100861.00;5071890;28;20474;-45
2023/07/17 03:00:17;;;;;;;25.77;8.13;;;;;;;15.99;75.51;100860.16;5072209;28;20024;-44
2023/07/17 03:02:45;;;;;;;26.67;7.75;;;;;;;15.93;76.11;100856.53;5072607;28;20474;-50
2023/07/17 03:05:12;;;;;;;16.50;7.15;;;;;;;15.84;76.76;100863.41;5072116;28;20039;-47
2023/07/17 03:07:43;;;;;;;31.83;8.18;;;;;;;15.88;76.68;100866.44;5072073;28;20089;-45
2023/07/17 03:10:10;;;;;;;25.40;8.15;;;;;;;15.78;76.79;100870.59;5072727;28;20031;-46
2023/07/17 03:12:36;;;;;;;26.90;8.40;;;;;;;15.80;76.55;100875.72;5071916;28;20020;-47
2023/07/17 03:15:04;;;;;;;26.52;8.15;;;;;;;15.73;76.65;100872.34;5071587;28;20103;-45
2023/07/17 03:17:31;;;;;;;18.20;7.10;;;;;;;15.74;76.98;100884.78;5066857;28;20546;-45
2023/07/17 03:19:58;;;;;;;24.83;7.80;;;;;;;15.66;77.48;100877.09;5051727;28;20027;-46
2023/07/17 03:22:24;;;;;;;28.02;8.00;;;;;;;15.58;77.71;100880.91;5054239;28;20033;-47
2023/07/17 03:24:53;;;;;;;27.27;8.20;;;;;;;15.50;78.48;100881.31;5071728;28;20025;-48
2023/07/17 03:27:19;;;;;;;25.60;8.07;;;;;;;15.55;78.19;100878.72;5071408;28;20406;-44
2023/07/17 03:29:49;;;;;;;23.33;7.85;;;;;;;15.48;78.31;100878.81;5071536;28;20034;-48
2023/07/17 03:32:15;;;;;;;25.33;8.68;;;;;;;15.44;78.83;100891.16;5071088;28;20107;-48
2023/07/17 03:34:41;;;;;;;25.58;8.20;;;;;;;15.51;78.66;100877.53;5071869;28;20024;-44
2023/07/17 03:37:07;;;;;;;28.58;8.98;;;;;;;15.45;78.78;100884.69;5071786;28;20031;-48
2023/07/17 03:39:34;;;;;;;29.65;7.90;;;;;;;15.46;78.86;100882.81;5071041;28;20521;-46
2023/07/17 03:42:00;;;;;;;24.42;7.82;;;;;;;15.40;79.23;100873.00;5070779;28;20429;-48
2023/07/17 03:44:26;;;;;;;25.60;7.68;;;;;;;15.39;79.37;100874.06;5071245;28;20112;-48
2023/07/17 03:46:52;;;;;;;23.48;8.05;;;;;;;15.47;79.34;100876.38;5070609;28;20056;-47
2023/07/17 03:49:18;;;;;;;26.42;7.78;;;;;;;15.45;79.15;100867.69;5051314;28;20035;-46
2023/07/17 03:51:45;;;;;;;29.77;8.30;;;;;;;15.44;79.62;100890.34;5051614;28;20112;-47
2023/07/17 03:54:11;;;;;;;29.75;7.80;;;;;;;15.46;79.51;100888.22;5051023;28;20382;-45
2023/07/17 03:56:39;;;;;;;26.70;8.32;;;;;;;15.38;79.67;100886.72;5055944;28;20458;-48
2023/07/17 03:59:05;;;;;;;24.13;8.10;;;;;;;15.37;80.21;100889.63;5071314;28;20551;-44
2023/07/17 04:01:31;;;;;;;26.33;7.85;;;;;;;15.36;79.83;100890.69;5071174;28;20032;-48
2023/07/17 04:03:58;;;;;;;24.65;8.25;;;;;;;15.34;79.51;100890.94;5071306;28;20025;-48
2023/07/17 04:06:24;;;;;;;28.20;8.10;;;;;;;15.45;79.37;100895.50;5071335;28;20036;-48
2023/07/17 04:08:50;;;;;;;23.40;7.78;;;;;;;15.37;79.04;100903.13;5071534;28;20462;-47
2023/07/17 04:11:16;;;;;;;24.98;7.63;;;;;;;15.36;79.57;100891.50;5071116;28;20032;-48
2023/07/17 04:13:44;;;;;;;28.83;8.25;;;;;;;15.42;79.18;100893.25;5070653;28;20020;-46
2023/07/17 04:16:12;;;;;;;28.02;7.80;;;;;;;15.47;79.07;100885.28;5071317;28;20032;-49
2023/07/17 04:18:38;;;;;;;24.92;7.70;;;;;;;15.56;78.58;100900.06;5071556;28;20032;-48
2023/07/17 04:21:05;;;;;;;27.05;7.97;;;;;;;15.56;78.79;100905.44;5070849;28;20167;-47
2023/07/17 04:23:31;;;;;;;18.75;7.95;;;;;;;15.51;79.10;100899.94;5070741;28;20111;-46
2023/07/17 04:25:57;;;;;;;25.73;7.50;;;;;;;15.49;79.92;100909.31;5071162;28;20035;-45
2023/07/17 04:28:23;;;;;;;31.15;7.93;;;;;;;15.56;79.62;100907.31;5071054;28;20021;-46
2023/07/17 04:30:50;;;;;;;24.10;7.32;;;;;;;15.57;79.31;100901.69;5073684;28;20543;-48
2023/07/17 04:33:16;;;;;;;25.85;7.47;;;;;;;15.49;80.35;100909.31;5074669;28;20052;-47
2023/07/17 04:35:42;;;;;;;28.33;8.00;;;;;;;15.59;79.89;100917.63;5080755;23;20068;-45
2023/07/17 04:38:08;;;;;;;19.92;7.45;;;;;;;15.65;79.55;100913.19;5074758;28;20031;-47
2023/07/17 04:40:34;;;;;;;20.65;7.55;;;;;;;15.64;79.69;100917.78;5074774;28;20035;-48
2023/07/17 04:43:01;;;;;;;23.15;7.32;;;;;;;15.71;78.80;100912.22;5074706;28;20051;-46
2023/07/17 04:45:28;;;;;;;25.73;7.57;;;;;;;15.65;79.59;100929.38;5074704;28;20021;-49
2023/07/17 04:47:55;;;;;;;24.65;7.28;;;;;;;15.64;79.29;100933.16;5071831;28;20020;-46
2023/07/17 04:50:26;;;;;;;22.05;7.75;;;;;;;15.57;79.46;100930.53;5074680;28;20422;-48
2023/07/17 04:52:53;;;;;;;27.98;8.18;;;;;;;15.49;80.18;100937.13;5074475;28;20028;-45
2023/07/17 04:55:21;;;;;;;23.83;7.90;;;;;;;15.52;79.99;100935.81;5074614;28;20056;-47
2023/07/17 04:57:47;;;;;;;28.48;8.27;;;;;;;15.50;80.14;100944.16;5074588;28;20021;-48
2023/07/17 05:00:15;;;;;;;24.95;7.95;;;;;;;15.49;80.39;100942.53;5074185;28;20032;-47
2023/07/17 05:02:41;;;;;;;25.25;7.72;;;;;;;15.38;80.72;100947.91;5074003;28;20036;-45
2023/07/17 05:05:08;;;;;;;19.05;6.95;;;;;;;15.52;79.91;100950.13;5074304;28;20020;-50
2023/07/17 05:07:34;;;;;;;29.45;7.95;;;;;;;15.48;80.68;100945.44;5069718;28;20481;-48
2023/07/17 05:10:00;;;;;;;27.23;8.55;;;;;;;15.50;80.56;100965.75;5056629;28;20386;-45
2023/07/17 05:12:27;;;;;;;32.38;8.20;;;;;;;15.48;80.90;100962.44;5070626;28;20099;-46
2023/07/17 05:14:54;;;;;;;26.60;8.80;;;;;;;15.49;81.00;100953.31;5071519;28;20355;-45
2023/07/17 05:17:20;;;;;;;26.48;8.43;;;;;;;15.38;81.88;100954.16;5074047;28;20029;-47
2023/07/17 05:19:46;;;;;;;31.00;7.80;;;;;;;15.37;81.97;100951.66;5073862;28;20046;-48
2023/07/17 05:22:12;;;;;;;28.50;8.60;;;;;;;15.32;81.78;100958.59;5073253;28;20429;-46
2023/07/17 05:24:39;;;;;;;35.92;8.70;;;;;;;15.38;81.91;100964.09;5073779;28;20029;-48
2023/07/17 05:27:05;;;;;;;33.88;9.15;;;;;;;15.34;81.93;100971.03;5070192;28;20118;-49
2023/07/17 05:29:31;;;;;;;27.00;8.90;;;;;;;15.32;81.95;100976.63;5073564;28;20029;-48
2023/07/17 05:31:57;;;;;;;27.23;8.73;;;;;;;15.26;82.48;100981.09;5073981;28;20036;-48
2023/07/17 05:34:24;;;;;;;24.88;8.15;;;;;;;15.35;82.06;100973.47;5074335;28;20032;-49
2023/07/17 05:36:50;;;;;;;28.73;7.90;;;;;;;15.26;82.49;100973.00;5074260;28;20072;-47
2023/07/17 05:39:16;;;;;;;25.02;8.20;;;;;;;15.40;81.83;100962.81;5076016;28;20123;-49
2023/07/17 05:41:42;;;;;;;21.40;7.03;;;;;;;15.30;82.55;100959.88;5094168;28;20481;-48
2023/07/17 05:44:08;;;;;;;30.25;8.50;;;;;;;15.23;82.96;100943.00;5094509;28;20111;-48
2023/07/17 05:46:35;;;;;;;24.40;7.82;;;;;;;15.18;83.28;100949.09;5094219;28;20105;-49
2023/07/17 05:49:01;;;;;;;24.80;8.13;;;;;;;15.22;83.01;100947.56;5094406;28;20039;-46
2023/07/17 05:51:27;;;;;;;26.27;7.95;;;;;;;15.32;82.85;100941.56;5093939;28;20020;-46
2023/07/17 05:53:53;;;;;;;26.40;8.27;;;;;;;15.36;82.47;100944.63;5094008;28;20028;-46
2023/07/17 05:56:20;;;;;;;22.45;7.43;;;;;;;15.38;82.42;100948.75;5083270;28;20418;-49
2023/07/17 05:58:46;;;;;;;31.52;8.35;;;;;;;15.37;82.51;100949.78;5071901;28;20069;-46
2023/07/17 06:01:12;;;;;;;24.83;7.68;;;;;;;15.28;83.58;100943.94;5055103;28;20179;-48
2023/07/17 06:03:38;;;;;;;23.77;7.80;;;;;;;15.36;83.19;100947.31;5053512;28;20028;-45
2023/07/17 06:06:04;;;;;;;26.00;7.72;;;;;;;15.38;83.08;100954.16;5052881;28;20060;-46
2023/07/17 06:08:31;;;;;;;22.08;7.88;;;;;;;15.42;82.84;100954.47;5053094;28;20025;-45
2023/07/17 06:10:57;;;;;;;28.30;7.75;;;;;;;15.33;82.94;100945.94;5065387;28;20029;-49
2023/07/17 06:13:23;;;;;;;28.67;8.57;;;;;;;15.32;82.79;100941.56;5072552;28;20025;-47
2023/07/17 06:15:49;;;;;;;23.17;7.30;;;;;;;15.32;82.54;100942.41;5061441;28;20029;-50
2023/07/17 06:18:16;;;;;;;27.00;8.35;;;;;;;15.28;83.08;100940.44;5052820;28;20029;-45
2023/07/17 06:20:42;;;;;;;19.10;7.80;;;;;;;15.23;83.18;100949.22;5070982;28;20032;-47
2023/07/17 06:23:08;;;;;;;25.73;7.88;;;;;;;15.15;83.60;100952.25;5072758;28;20066;-48
2023/07/17 06:25:37;;;;;;;30.05;8.07;;;;;;;15.17;84.06;100955.53;5072725;28;20024;-45
2023/07/17 06:28:04;;;;;;;19.50;7.53;;;;;;;15.26;83.47;100953.31;5072863;28;20032;-45
2023/07/17 06:30:31;;;;;;;32.85;8.40;;;;;;;15.24;83.22;100950.03;5078331;22;20401;-45
2023/07/17 06:32:58;;;;;;;28.45;8.27;;;;;;;15.22;83.29;100955.66;5072425;28;20029;-46
2023/07/17 06:35:24;;;;;;;28.35;9.07;;;;;;;15.17;83.60;100954.72;5072627;28;20048;-46
2023/07/17 06:37:50;;;;;;;24.30;8.43;;;;;;;15.22;83.50;100960.25;5072630;28;20028;-47
2023/07/17 06:40:17;;;;;;;25.13;7.68;;;;;;;15.21;84.43;100956.72;5072567;28;20770;-48
2023/07/17 06:42:43;;;;;;;26.38;8.13;;;;;;;15.22;85.16;100955.66;5072269;28;20028;-48
2023/07/17 06:45:09;;;;;;;22.60;7.60;;;;;;;15.16;85.94;100947.69;5072353;28;20112;-47
2023/07/17 06:47:35;;;;;;;37.42;8.88;;;;;;;15.13;85.94;100950.84;5072344;28;20064;-47
2023/07/17 06:50:02;;;;;;;27.55;8.43;;;;;;;15.19;85.38;100960.69;5072413;28;20043;-49
2023/07/17 06:52:29;;;;;;;24.60;7.97;;;;;;;15.20;84.79;100965.03;5068382;28;20028;-44
2023/07/17 06:54:55;;;;;;;29.00;7.57;;;;;;;15.08;84.80;100959.63;5062573;28;20442;-46
2023/07/17 06:57:21;;;;;;;28.42;7.28;;;;;;;15.07;84.79;100952.59;5072295;28;20025;-48
2023/07/17 06:59:48;;;;;;;35.95;7.72;;;;;;;15.11;84.58;100956.47;5070176;28;20054;-48
2023/07/17 07:02:14;;;;;;;24.90;8.00;;;;;;;15.07;84.67;100963.38;5068670;28;20496;-44
2023/07/17 07:04:40;;;;;;;27.17;8.70;;;;;;;15.10;84.95;100970.16;5070410;28;20025;-47
2023/07/17 07:07:09;;;;;;;24.33;7.90;;;;;;;15.03;85.20;100965.72;5070892;28;20056;-46
2023/07/17 07:09:35;;;;;;;26.20;7.72;;;;;;;15.03;85.38;100970.28;5030914;28;20120;-48
2023/07/17 07:12:02;;;;;;;30.80;8.45;;;;;;;14.96;86.06;100978.47;5071393;28;20059;-45
2023/07/17 07:14:28;;;;;;;31.90;8.20;;;;;;;14.92;86.19;100985.38;5071964;28;20135;-48
2023/07/17 07:16:54;;;;;;;24.85;8.70;;;;;;;14.96;86.34;100983.88;5069961;28;20024;-46
2023/07/17 07:19:20;;;;;;;24.00;8.02;;;;;;;15.04;85.86;100974.63;5071982;28;20034;-48
2023/07/17 07:21:47;;;;;;;29.65;9.20;;;;;;;15.04;85.90;100972.72;5070705;28;20497;-46
2023/07/17 07:24:13;;;;;;;27.40;9.05;;;;;;;14.98;86.23;100962.06;5070126;28;20447;-46
2023/07/17 07:26:39;;;;;;;29.35;8.70;;;;;;;14.96;86.58;100954.22;5066296;28;20509;-45
2023/07/17 07:29:05;;;;;;;32.88;8.75;;;;;;;14.90;86.95;100952.44;5071646;28;20033;-48
2023/07/17 07:31:31;;;;;;;32.00;9.38;;;;;;;14.90;87.02;100955.16;5071135;28;20071;-45
2023/07/17 07:33:58;;;;;;;28.90;8.70;;;;;;;14.88;87.28;100946.50;5071545;28;20589;-45
2023/07/17 07:36:28;;;;;;;31.02;8.85;;;;;;;14.87;87.46;100955.59;5071692;28;20024;-44
2023/07/17 07:38:55;;;;;;;25.98;8.05;;;;;;;14.80;88.02;100971.06;5071461;28;20033;-46
2023/07/17 07:41:21;;;;;;;26.38;7.80;;;;;;;14.85;87.95;100967.69;5066381;28;20028;-46
2023/07/17 07:43:48;;;;;;;32.35;9.88;;;;;;;14.87;87.52;100961.00;5063441;28;20024;-47
2023/07/17 07:46:14;;;;;;;26.85;7.72;;;;;;;14.81;87.41;100967.31;5071319;28;20032;-45
2023/07/17 07:48:40;;;;;;;23.50;8.57;;;;;;;14.84;87.41;100956.06;5071645;28;20551;-46
2023/07/17 07:51:06;;;;;;;27.63;8.07;;;;;;;14.89;86.97;100961.59;5071319;28;20036;-48
2023/07/17 07:53:33;;;;;;;30.90;8.82;;;;;;;14.88;87.06;100968.03;5068643;28;20497;-44
2023/07/17 07:56:00;;;;;;;33.83;8.40;;;;;;;14.76;87.56;100973.38;5065172;28;20059;-46
2023/07/17 07:58:27;;;;;;;26.27;8.35;;;;;;;14.81;87.45;100961.09;5070982;28;20105;-48
2023/07/17 08:00:53;;;;;;;28.20;8.80;;;;;;;14.72;87.88;100957.94;5069433;28;20021;-45
2023/07/17 08:03:20;;;;;;;32.88;9.48;;;;;;;14.75;87.67;100952.06;5069522;28;20113;-47
2023/07/17 08:05:46;;;;;;;28.98;9.02;;;;;;;14.62;88.34;100952.28;5080001;23;20044;-49
2023/07/17 08:08:12;;;;;;;30.73;10.32;;;;;;;14.59;88.39;100956.22;5073656;28;20650;-45
2023/07/17 08:10:38;;;;;;;30.70;9.27;;;;;;;14.65;88.37;100951.78;5074015;28;20052;-48
2023/07/17 08:13:05;;;;;;;29.08;8.38;;;;;;;14.64;88.10;100959.06;5072206;28;20025;-44
2023/07/17 08:15:32;;;;;;;33.88;9.23;;;;;;;14.63;88.46;100965.50;5074743;28;20115;-49
2023/07/17 08:17:58;;;;;;;28.50;8.80;;;;;;;14.53;88.58;100962.53;5071941;28;20482;-45
2023/07/17 08:20:24;;;;;;;30.17;10.25;;;;;;;14.59;88.54;100958.94;5074638;28;20032;-48
2023/07/17 08:22:54;;;;;;;22.65;7.93;;;;;;;14.60;88.39;100959.75;5074856;28;20551;-46
2023/07/17 08:25:25;;;;;;;26.85;8.70;;;;;;;14.69;88.15;100961.06;5075287;28;20034;-47
2023/07/17 08:27:51;;;;;;;28.52;9.18;;;;;;;14.64;88.29;100969.84;5075208;28;20058;-45
2023/07/17 08:30:18;;;;;;;23.92;8.73;;;;;;;14.64;88.35;100974.41;5074800;28;20024;-47
2023/07/17 08:32:44;;;;;;;34.38;10.73;;;;;;;14.59;88.71;100988.56;5071891;28;20102;-48
2023/07/17 08:35:10;;;;;;;33.75;8.23;;;;;;;14.64;88.87;100977.09;5074967;28;20038;-46
2023/07/17 08:37:37;;;;;;;21.85;7.57;;;;;;;14.66;88.49;100977.72;5072508;28;20021;-48
2023/07/17 08:40:04;;;;;;;29.73;9.27;;;;;;;14.59;88.42;100985.88;5072537;28;20032;-47
2023/07/17 08:42:30;;;;;;;30.05;8.23;;;;;;;14.63;88.33;100973.59;5073642;28;20509;-49
2023/07/17 08:44:58;;;;;;;33.42;8.93;;;;;;;14.70;87.88;100965.41;5073262;28;20024;-45
2023/07/17 08:47:25;;;;;;;30.60;8.38;;;;;;;14.68;87.81;100967.50;5073798;28;20029;-45
2023/07/17 08:49:52;;;;;;;26.42;8.30;;;;;;;14.72;87.54;100968.72;5072121;28;20028;-45
2023/07/17 08:52:18;;;;;;;31.10;8.35;;;;;;;14.64;87.46;100963.63;5073581;28;20041;-48
2023/07/17 08:54:44;;;;;;;31.27;8.52;;;;;;;14.69;87.04;100974.53;5068685;28;20027;-45
2023/07/17 08:57:11;;;;;;;29.38;8.82;;;;;;;14.67;86.60;100976.66;5073463;28;20033;-45
2023/07/17 08:59:38;;;;;;;25.73;8.30;;;;;;;14.71;86.25;100970.59;5067455;28;20029;-49
2023/07/17 09:02:04;;;;;;;26.08;8.10;;;;;;;14.70;86.42;100963.53;5073175;28;20028;-48
2023/07/17 09:04:31;;;;;;;35.65;8.93;;;;;;;14.70;85.84;100970.78;5070521;28;20503;-46
2023/07/17 09:06:58;;;;;;;26.13;7.80;;;;;;;14.58;85.93;100962.69;5072328;28;20036;-48
2023/07/17 09:09:24;;;;;;;29.48;9.27;;;;;;;14.59;85.70;100963.50;5074347;28;20078;-45
2023/07/17 09:12:10;;;;;;;22.80;8.57;;;;;;;14.56;86.22;100969.34;5072283;28;20071;-45
2023/07/17 09:14:39;;;;;;;33.00;9.27;;;;;;;14.53;86.26;100960.66;5073800;28;20020;-44
2023/07/17 09:17:09;;;;;;;31.92;8.77;;;;;;;14.54;86.49;100961.47;5072367;28;20029;-45
2023/07/17 09:19:36;;;;;;;31.70;8.70;;;;;;;14.43;87.28;100971.13;5073141;28;20402;-45
2023/07/17 09:22:04;;;;;;;29.52;8.63;;;;;;;14.39;87.69;100971.84;5071853;28;20031;-45
2023/07/17 09:24:33;;;;;;;28.38;8.75;;;;;;;14.38;88.12;100973.72;5058068;28;20107;-45
2023/07/17 09:27:00;;;;;;;30.40;9.00;;;;;;;14.35;88.21;100979.53;5072299;28;20394;-47
2023/07/17 09:29:26;;;;;;;27.00;9.07;;;;;;;14.43;88.08;100968.44;5071469;28;20440;-45
2023/07/17 09:31:54;;;;;;;31.08;8.95;;;;;;;14.38;88.53;100970.16;5069543;28;20025;-46
2023/07/17 09:34:20;;;;;;;32.05;8.50;;;;;;;14.37;88.28;100961.28;5071931;28;20482;-48
2023/07/17 09:36:52;;;;;;;25.27;7.93;;;;;;;14.44;88.14;100971.97;5072248;28;20025;-48
2023/07/17 09:39:19;;;;;;;32.83;8.85;;;;;;;14.43;88.07;100963.06;5070496;28;20025;-46
2023/07/17 09:41:45;;;;;;;35.47;8.85;;;;;;;14.37;88.58;100965.84;5070830;28;20035;-45
2023/07/17 09:44:19;;;;;;;27.85;7.90;;;;;;;14.33;88.88;100959.28;5072690;28;20598;-48
2023/07/17 09:46:47;;;;;;;31.27;8.27;;;;;;;14.30;88.74;100955.16;5071734;28;20013;-45
2023/07/17 09:49:14;;;;;;;37.80;9.38;;;;;;;14.27;89.13;100955.63;5072133;28;20086;-47
2023/07/17 09:51:40;;;;;;;32.88;9.18;;;;;;;14.33;88.88;100965.50;5070347;28;20055;-46
2023/07/17 09:54:07;;;;;;;27.52;9.00;;;;;;;14.32;88.96;100952.25;5064130;28;20021;-46
2023/07/17 09:56:33;;;;;;;29.20;9.13;;;;;;;14.39;88.67;100942.22;5071021;28;20028;-49
2023/07/17 09:59:13;;;;;;;32.92;9.00;;;;;;;14.32;89.17;100947.66;5065610;28;20768;-48
2023/07/17 10:01:47;;;;;;;31.52;8.38;;;;;;;14.34;89.33;100944.78;5069343;28;20093;-47
2023/07/17 10:04:20;;;;;;;24.83;8.82;;;;;;;14.37;89.38;100945.13;5072174;28;20078;-48
2023/07/17 10:06:48;;;;;;;30.42;9.88;;;;;;;14.30;89.59;100944.41;5072409;28;20032;-47
2023/07/17 10:09:18;;;;;;;32.03;9.85;;;;;;;14.31;89.69;100929.88;5071543;28;20040;-45
2023/07/17 10:11:45;;;;;;;35.33;9.95;;;;;;;14.32;89.75;100939.59;5071559;28;20036;-47
2023/07/17 10:14:12;;;;;;;32.30;8.93;;;;;;;14.22;90.38;100939.34;5071706;28;20021;-48
2023/07/17 10:16:38;;;;;;;32.42;8.80;;;;;;;14.20;90.35;100934.16;5072103;28;20050;-46
2023/07/17 10:19:04;;;;;;;32.60;9.43;;;;;;;14.25;90.39;100941.56;5070040;28;20032;-47
2023/07/17 10:21:31;;;;;;;29.45;9.07;;;;;;;14.30;90.09;100936.31;5071853;28;20121;-45
2023/07/17 10:24:04;;;;;;;34.78;8.65;;;;;;;14.37;89.89;100945.13;5071042;28;20036;-46
2023/07/17 10:26:31;;;;;;;30.20;8.73;;;;;;;14.34;90.39;100932.13;5071840;28;20091;-45
2023/07/17 10:29:02;;;;;;;33.50;9.35;;;;;;;14.29;90.47;100936.56;5072603;28;20067;-47
2023/07/17 10:31:31;;;;;;;31.92;9.38;;;;;;;14.26;90.00;100925.16;5071736;28;20094;-45
2023/07/17 10:34:04;;;;;;;37.22;9.88;;;;;;;14.29;89.81;100936.56;5071548;28;20491;-47
2023/07/17 10:36:40;;;;;;;36.67;9.13;;;;;;;14.21;90.27;100934.97;5071637;28;20455;-46
2023/07/17 10:39:07;;;;;;;30.17;8.80;;;;;;;14.23;90.21;100949.88;5070768;28;20036;-48
2023/07/17 10:41:36;;;;;;;42.13;10.10;;;;;;;14.17;90.72;100944.59;5069353;28;20036;-48
2023/07/17 10:44:06;;;;;;;31.55;9.40;;;;;;;14.31;89.98;100940.66;5070813;28;20047;-48
2023/07/17 10:46:34;;;;;;;30.98;8.85;;;;;;;14.19;90.43;100945.16;5069091;28;20036;-47
2023/07/17 10:49:11;;;;;;;33.60;9.73;;;;;;;14.25;90.44;100942.38;5069794;28;20028;-48
2023/07/17 10:51:42;;;;;;;32.90;8.70;;;;;;;14.27;90.31;100934.09;5071182;28;20020;-48
2023/07/17 10:54:08;;;;;;;38.85;9.77;;;;;;;14.23;90.73;100938.28;5070187;28;20032;-46
2023/07/17 10:56:35;;;;;;;33.58;9.85;;;;;;;14.20;91.10;100936.03;5071598;28;20024;-45
2023/07/17 10:59:01;;;;;;;31.23;9.40;;;;;;;14.17;91.41;100947.28;5064913;28;20032;-48
2023/07/17 11:01:29;;;;;;;35.58;10.07;;;;;;;14.20;91.29;100944.13;5070431;28;20052;-49
2023/07/17 11:03:56;;;;;;;27.30;9.20;;;;;;;14.25;91.28;100944.25;5070432;28;20433;-50
2023/07/17 11:06:26;;;;;;;33.55;9.48;;;;;;;14.37;90.56;100937.03;5071658;28;20036;-45
2023/07/17 11:08:54;;;;;;;27.73;9.10;;;;;;;14.36;90.51;100942.66;5069922;28;20123;-47
2023/07/17 11:11:20;;;;;;;38.40;8.88;;;;;;;14.37;90.64;100945.13;5068957;28;20055;-46
2023/07/17 11:13:48;;;;;;;33.25;9.40;;;;;;;14.44;90.49;100943.16;5071030;28;20098;-44
2023/07/17 11:16:16;;;;;;;37.63;9.18;;;;;;;14.41;90.49;100943.63;5069108;28;20031;-47